createdAt,value
2023-11-21T00:01:05.804Z,99324.81
2023-11-21T00:03:33.007Z,99323.34
2023-11-21T00:05:59.844Z,99318.88
2023-11-21T00:08:26.312Z,99323.75
2023-11-21T00:10:52.931Z,99320.25
2023-11-21T00:13:19.707Z,99318.19
2023-11-21T00:15:46.274Z,99319.75
2023-11-21T00:18:12.989Z,99321.44
2023-11-21T00:20:39.546Z,99328.06
2023-11-21T00:23:06.144Z,99330.94
2023-11-21T00:25:33.037Z,99334.56
2023-11-21T00:27:59.869Z,99340.28
2023-11-21T00:30:26.455Z,99348.31
2023-11-21T00:32:53.034Z,99348.47
2023-11-21T00:35:19.627Z,99354.47
2023-11-21T00:37:46.162Z,99358.09
2023-11-21T00:40:13.503Z,99350.81
2023-11-21T00:42:40.352Z,99360.91
2023-11-21T00:45:08.020Z,99363.28
2023-11-21T00:47:34.789Z,99370.13
2023-11-21T00:50:01.613Z,99365.66
2023-11-21T00:52:28.382Z,99354.84
2023-11-21T00:54:55.075Z,99363.09
2023-11-21T00:57:21.674Z,99344.00
2023-11-21T00:59:48.193Z,99352.09
2023-11-21T01:02:14.786Z,99344.41
2023-11-21T01:04:41.346Z,99340.66
2023-11-21T01:07:08.256Z,99347.81
2023-11-21T01:09:34.862Z,99343.59
2023-11-21T01:12:01.968Z,99340.94
2023-11-21T01:14:28.771Z,99333.94
2023-11-21T01:16:55.566Z,99322.59
2023-11-21T01:19:22.343Z,99328.78
2023-11-21T01:21:48.918Z,99335.03
2023-11-21T01:24:15.591Z,99325.50
2023-11-21T01:26:42.047Z,99312.69
2023-11-21T01:29:08.656Z,99335.75
2023-11-21T01:31:35.357Z,99323.97
2023-11-21T01:34:02.066Z,99329.44
2023-11-21T01:36:34.802Z,99331.44
2023-11-21T01:39:01.505Z,99320.19
2023-11-21T01:41:29.895Z,99325.28
2023-11-21T01:43:57.145Z,99325.28
2023-11-21T01:46:24.421Z,99313.13
2023-11-21T01:48:51.396Z,99314.94
2023-11-21T01:51:18.544Z,99310.75
2023-11-21T01:53:47.811Z,99324.59
2023-11-21T01:56:14.577Z,99306.25
2023-11-21T01:58:42.228Z,99299.56
2023-11-21T02:01:09.910Z,99292.69
2023-11-21T02:03:36.635Z,99303.22
2023-11-21T02:06:03.952Z,99287.91
2023-11-21T02:08:30.432Z,99291.56
2023-11-21T02:10:58.747Z,99294.63
2023-11-21T02:13:25.557Z,99285.66
2023-11-21T02:15:53.559Z,99298.44
2023-11-21T02:18:20.267Z,99292.69
2023-11-21T02:20:47.826Z,99293.22
2023-11-21T02:23:14.535Z,99279.06
2023-11-21T02:25:41.065Z,99279.63
2023-11-21T02:28:08.061Z,99272.22
2023-11-21T02:30:34.977Z,99271.06
2023-11-21T02:33:02.752Z,99263.47
2023-11-21T02:35:32.607Z,99269.50
2023-11-21T02:37:59.568Z,99258.97
2023-11-21T02:40:27.594Z,99267.06
2023-11-21T02:42:54.431Z,99264.84
2023-11-21T02:45:22.332Z,99255.78
2023-11-21T02:47:50.493Z,99268.78
2023-11-21T02:50:17.597Z,99263.31
2023-11-21T02:52:44.280Z,99264.94
2023-11-21T02:55:10.970Z,99258.47
2023-11-21T02:57:37.523Z,99258.03
2023-11-21T03:00:04.753Z,99262.66
2023-11-21T03:02:31.470Z,99260.75
2023-11-21T03:04:58.230Z,99261.72
2023-11-21T03:07:24.739Z,99248.56
2023-11-21T03:09:51.571Z,99243.75
2023-11-21T03:12:18.189Z,99242.69
2023-11-21T03:14:44.757Z,99243.22
2023-11-21T03:17:11.357Z,99246.34
2023-11-21T03:19:37.898Z,99235.81
2023-11-21T03:22:05.404Z,99238.78
2023-11-21T03:24:33.006Z,99238.78
2023-11-21T03:26:59.519Z,99226.00
2023-11-21T03:29:27.051Z,99209.19
2023-11-21T03:31:53.646Z,99219.00
2023-11-21T03:34:27.997Z,99213.81
2023-11-21T03:36:54.988Z,99199.06
2023-11-21T03:39:21.965Z,99197.47
2023-11-21T03:41:48.555Z,99212.84
2023-11-21T03:44:15.776Z,99215.06
2023-11-21T03:46:42.338Z,99212.91
2023-11-21T03:49:09.012Z,99224.13
2023-11-21T03:51:35.547Z,99227.22
2023-11-21T03:54:02.026Z,99224.88
2023-11-21T03:56:28.508Z,99223.06
2023-11-21T03:58:55.094Z,99229.75
2023-11-21T04:01:25.554Z,99234.00
2023-11-21T04:03:52.403Z,99229.28
2023-11-21T04:06:19.115Z,99240.03
2023-11-21T04:08:46.383Z,99236.06
2023-11-21T04:11:13.635Z,99231.66
2023-11-21T04:13:41.106Z,99241.41
2023-11-21T04:16:08.826Z,99251.44
2023-11-21T04:18:37.647Z,99245.97
2023-11-21T04:21:05.023Z,99250.59
2023-11-21T04:23:32.953Z,99252.06
2023-11-21T04:26:00.062Z,99257.00
2023-11-21T04:28:26.775Z,99246.94
2023-11-21T04:30:53.284Z,99241.09
2023-11-21T04:33:19.946Z,99256.66
2023-11-21T04:35:47.381Z,99247.47
2023-11-21T04:38:14.029Z,99262.31
2023-11-21T04:40:40.628Z,99254.00
2023-11-21T04:43:07.229Z,99264.00
2023-11-21T04:45:33.771Z,99273.34
2023-11-21T04:48:00.392Z,99274.91
2023-11-21T04:50:29.832Z,99275.88
2023-11-21T04:52:56.438Z,99284.84
2023-11-21T04:55:23.020Z,99276.41
2023-11-21T04:57:49.620Z,99276.66
2023-11-21T05:00:17.274Z,99286.69
2023-11-21T05:02:45.802Z,99289.47
2023-11-21T05:05:13.345Z,99296.16
2023-11-21T05:07:40.832Z,99293.66
2023-11-21T05:10:17.360Z,99283.66
2023-11-21T05:12:43.995Z,99272.94
2023-11-21T05:15:11.489Z,99278.50
2023-11-21T05:17:40.060Z,99277.06
2023-11-21T05:20:09.670Z,99269.69
2023-11-21T05:22:36.737Z,99285.81
2023-11-21T05:25:04.887Z,99284.28
2023-11-21T05:27:34.450Z,99285.81
2023-11-21T05:30:04.071Z,99280.16
2023-11-21T05:32:30.635Z,99290.16
2023-11-21T05:34:57.260Z,99274.84
2023-11-21T05:37:24.415Z,99274.22
2023-11-21T05:39:50.950Z,99281.25
2023-11-21T05:42:18.079Z,99282.53
2023-11-21T05:44:44.694Z,99276.13
2023-11-21T05:47:11.622Z,99294.75
2023-11-21T05:49:38.216Z,99300.88
2023-11-21T05:52:06.343Z,99293.91
2023-11-21T05:54:33.725Z,99301.97
2023-11-21T05:57:01.049Z,99304.03
2023-11-21T05:59:27.650Z,99301.28
2023-11-21T06:01:54.944Z,99298.88
2023-11-21T06:04:25.218Z,99307.75
2023-11-21T06:06:53.821Z,99307.16
2023-11-21T06:09:21.723Z,99311.22
2023-11-21T06:11:48.173Z,99325.22
2023-11-21T06:14:14.676Z,99318.50
2023-11-21T06:16:42.008Z,99308.84
2023-11-21T06:19:08.527Z,99330.41
2023-11-21T06:21:35.212Z,99338.94
2023-11-21T06:24:02.652Z,99342.81
2023-11-21T06:26:29.569Z,99356.47
2023-11-21T06:29:04.265Z,99362.47
2023-11-21T06:31:31.368Z,99363.94
2023-11-21T06:33:58.986Z,99353.16
2023-11-21T06:36:25.669Z,99368.47
2023-11-21T06:38:52.204Z,99370.28
2023-11-21T06:41:18.767Z,99366.78
2023-11-21T06:43:47.868Z,99367.00
2023-11-21T06:46:17.684Z,99358.06
2023-11-21T06:48:44.695Z,99372.28
2023-11-21T06:51:11.475Z,99367.75
2023-11-21T06:53:39.555Z,99378.00
2023-11-21T06:56:16.514Z,99374.47
2023-11-21T06:58:43.165Z,99360.53
2023-11-21T07:01:09.833Z,99376.44
2023-11-21T07:03:38.695Z,99373.50
2023-11-21T07:06:05.871Z,99370.38
2023-11-21T07:08:32.689Z,99375.09
2023-11-21T07:10:59.259Z,99377.28
2023-11-21T07:13:25.857Z,99378.63
2023-11-21T07:15:52.399Z,99376.63
2023-11-21T07:18:19.410Z,99380.22
2023-11-21T07:20:46.050Z,99380.44
2023-11-21T07:23:12.563Z,99371.13
2023-11-21T07:25:39.147Z,99382.91
2023-11-21T07:28:06.639Z,99369.19
2023-11-21T07:30:33.569Z,99377.75
2023-11-21T07:33:00.261Z,99382.97
2023-11-21T07:35:27.755Z,99380.63
2023-11-21T07:37:54.332Z,99381.31
2023-11-21T07:40:21.014Z,99376.97
2023-11-21T07:42:47.528Z,99379.28
2023-11-21T07:45:14.198Z,99376.78
2023-11-21T07:47:41.067Z,99378.31
2023-11-21T07:50:09.045Z,99380.63
2023-11-21T07:52:35.842Z,99383.31
2023-11-21T07:55:02.820Z,99380.47
2023-11-21T07:57:29.445Z,99383.00
2023-11-21T07:59:56.379Z,99386.66
2023-11-21T08:02:22.995Z,99383.97
2023-11-21T08:04:52.647Z,99379.28
2023-11-21T08:07:19.279Z,99377.63
2023-11-21T08:09:45.858Z,99380.47
2023-11-21T08:12:12.447Z,99388.50
2023-11-21T08:14:40.199Z,99390.50
2023-11-21T08:17:07.225Z,99376.44
2023-11-21T08:19:34.303Z,99373.59
2023-11-21T08:22:00.901Z,99363.72
2023-11-21T08:24:27.719Z,99379.13
2023-11-21T08:26:55.343Z,99367.75
2023-11-21T08:29:21.847Z,99363.72
2023-11-21T08:31:48.426Z,99364.06
2023-11-21T08:34:16.448Z,99362.38
2023-11-21T08:36:44.369Z,99354.53
2023-11-21T08:39:14.528Z,99361.56
2023-11-21T08:41:41.207Z,99360.41
2023-11-21T08:44:08.139Z,99359.38
2023-11-21T08:46:35.437Z,99370.94
2023-11-21T08:49:02.546Z,99368.94
2023-11-21T08:51:29.008Z,99365.94
2023-11-21T08:53:56.074Z,99374.28
2023-11-21T08:56:22.676Z,99376.81
2023-11-21T08:58:49.211Z,99382.66
2023-11-21T09:01:15.768Z,99374.47
2023-11-21T09:03:42.682Z,99375.94
2023-11-21T09:06:11.026Z,99373.25
2023-11-21T09:08:38.259Z,99390.03
2023-11-21T09:11:04.962Z,99385.50
2023-11-21T09:13:31.520Z,99378.63
2023-11-21T09:15:58.042Z,99369.09
2023-11-21T09:18:24.708Z,99375.44
2023-11-21T09:20:51.274Z,99367.38
2023-11-21T09:23:17.890Z,99366.56
2023-11-21T09:25:47.411Z,99371.94
2023-11-21T09:28:14.325Z,99350.16
2023-11-21T09:30:40.832Z,99354.84
2023-11-21T09:33:07.869Z,99349.50
2023-11-21T09:35:34.429Z,99349.66
2023-11-21T09:38:02.819Z,99346.81
2023-11-21T09:40:29.799Z,99338.94
2023-11-21T09:42:58.314Z,99331.88
2023-11-21T09:45:28.894Z,99335.72
2023-11-21T09:47:59.606Z,99332.56
2023-11-21T09:50:29.716Z,99331.88
2023-11-21T09:53:17.525Z,99336.22
2023-11-21T09:55:45.665Z,99332.72
2023-11-21T09:58:15.403Z,99322.28
2023-11-21T10:00:47.122Z,99330.47
2023-11-21T10:03:14.675Z,99325.06
2023-11-21T10:05:43.372Z,99316.66
2023-11-21T10:08:11.709Z,99307.09
2023-11-21T10:10:42.513Z,99310.06
2023-11-21T10:13:13.214Z,99311.03
2023-11-21T10:15:42.523Z,99307.66
2023-11-21T10:18:10.643Z,99304.28
2023-11-21T10:20:39.135Z,99300.91
2023-11-21T10:23:08.582Z,99297.69
2023-11-21T10:25:36.932Z,99306.03
2023-11-21T10:28:08.173Z,99302.34
2023-11-21T10:30:39.292Z,99308.00
2023-11-21T10:33:06.691Z,99296.78
2023-11-21T10:35:52.611Z,99301.28
2023-11-21T10:38:19.413Z,99303.75
2023-11-21T10:40:47.754Z,99300.63
2023-11-21T10:43:16.170Z,99302.00
2023-11-21T10:45:43.969Z,99308.16
2023-11-21T10:48:16.771Z,99304.66
2023-11-21T10:50:44.986Z,99300.13
2023-11-21T10:53:13.050Z,99303.34
2023-11-21T10:55:40.068Z,99303.84
2023-11-21T10:58:08.384Z,99305.13
2023-11-21T11:00:35.098Z,99299.75
2023-11-21T11:03:02.429Z,99294.50
2023-11-21T11:05:31.250Z,99287.84
2023-11-21T11:08:04.176Z,99285.22
2023-11-21T11:10:30.976Z,99292.31
2023-11-21T11:12:58.657Z,99293.97
2023-11-21T11:15:26.639Z,99293.13
2023-11-21T11:17:53.566Z,99290.97
2023-11-21T11:20:23.160Z,99285.22
2023-11-21T11:23:10.148Z,99286.94
2023-11-21T11:25:54.939Z,99291.63
2023-11-21T11:28:27.644Z,99280.56
2023-11-21T11:31:35.662Z,99287.25
2023-11-21T11:34:27.036Z,99279.28
2023-11-21T11:37:03.619Z,99276.22
2023-11-21T11:39:31.855Z,99272.34
2023-11-21T11:42:02.540Z,99271.31
2023-11-21T11:44:47.041Z,99275.31
2023-11-21T11:47:24.278Z,99244.97
2023-11-21T11:50:15.209Z,99269.28
2023-11-21T11:52:46.909Z,99263.91
2023-11-21T11:55:16.833Z,99256.00
2023-11-21T11:57:44.196Z,99251.47
2023-11-21T12:00:30.039Z,99248.69
2023-11-21T12:03:01.016Z,99256.03
2023-11-21T12:05:31.767Z,99253.72
2023-11-21T12:07:59.368Z,99251.97
2023-11-21T12:10:27.538Z,99248.72
2023-11-21T12:12:56.944Z,99254.53
2023-11-21T12:15:24.259Z,99241.31
2023-11-21T12:17:51.448Z,99246.13
2023-11-21T12:20:21.272Z,99258.16
2023-11-21T12:23:06.903Z,99245.94
2023-11-21T12:25:34.356Z,99256.41
2023-11-21T12:28:02.129Z,99253.69
2023-11-21T12:30:34.005Z,99244.44
2023-11-21T12:33:02.224Z,99236.81
2023-11-21T12:35:36.421Z,99232.94
2023-11-21T12:38:06.177Z,99231.06
2023-11-21T12:40:33.147Z,99228.75
2023-11-21T12:43:02.381Z,99227.06
2023-11-21T12:45:30.266Z,99228.56
2023-11-21T12:48:12.267Z,99230.06
2023-11-21T12:50:40.155Z,99224.69
2023-11-21T12:53:10.054Z,99226.72
2023-11-21T12:55:40.364Z,99212.09
2023-11-21T12:58:12.375Z,99221.91
2023-11-21T13:00:47.962Z,99224.78
2023-11-21T13:03:24.998Z,99230.41
2023-11-21T13:05:53.126Z,99230.41
2023-11-21T13:08:23.483Z,99235.81
2023-11-21T13:10:52.998Z,99245.53
2023-11-21T13:13:23.654Z,99219.75
2023-11-21T13:16:01.763Z,99223.75
2023-11-21T13:18:29.558Z,99231.81
2023-11-21T13:20:57.889Z,99223.84
2023-11-21T13:23:25.148Z,99217.28
2023-11-21T13:25:58.165Z,99222.00
2023-11-21T13:28:33.377Z,99212.63
2023-11-21T13:31:10.686Z,99227.28
2023-11-21T13:33:44.128Z,99221.16
2023-11-21T13:36:11.803Z,99234.22
2023-11-21T13:38:43.357Z,99231.53
2023-11-21T13:41:11.444Z,99228.31
2023-11-21T13:43:38.566Z,99232.94
2023-11-21T13:46:14.718Z,99235.53
2023-11-21T13:48:51.861Z,99232.28
2023-11-21T13:51:18.904Z,99217.56
2023-11-21T13:53:49.116Z,99229.88
2023-11-21T13:56:20.683Z,99230.91
2023-11-21T13:58:53.792Z,99221.25
2023-11-21T14:01:31.010Z,99247.50
2023-11-21T14:04:32.588Z,99232.59
2023-11-21T14:07:02.235Z,99246.66
2023-11-21T14:09:34.054Z,99236.28
2023-11-21T14:12:01.909Z,99246.03
2023-11-21T14:14:31.995Z,99248.91
2023-11-21T14:16:59.987Z,99242.59
2023-11-21T14:19:32.777Z,99250.84
2023-11-21T14:21:59.462Z,99246.78
2023-11-21T14:24:26.662Z,99257.16
2023-11-21T14:26:53.985Z,99259.16
2023-11-21T14:29:21.589Z,99251.75
2023-11-21T14:31:48.447Z,99253.63
2023-11-21T14:34:18.708Z,99259.16
2023-11-21T14:36:47.243Z,99260.22
2023-11-21T14:39:27.991Z,99256.69
2023-11-21T14:41:57.814Z,99250.47
2023-11-21T14:44:33.954Z,99256.31
2023-11-21T14:47:01.656Z,99272.91
2023-11-21T14:49:34.627Z,99262.69
2023-11-21T14:52:01.696Z,99257.69
2023-11-21T14:54:38.452Z,99269.28
2023-11-21T14:57:06.221Z,99269.38
2023-11-21T14:59:33.515Z,99274.00
2023-11-21T15:02:01.434Z,99269.25
2023-11-21T15:04:37.842Z,99270.16
2023-11-21T15:07:05.449Z,99278.34
2023-11-21T15:09:32.672Z,99276.28
2023-11-21T15:12:15.462Z,99261.84
2023-11-21T15:14:53.328Z,99273.25
2023-11-21T15:17:27.890Z,99281.03
2023-11-21T15:19:55.397Z,99277.72
2023-11-21T15:22:22.717Z,99273.34
2023-11-21T15:24:50.499Z,99268.47
2023-11-21T15:27:18.359Z,99270.81
2023-11-21T15:29:45.282Z,99269.56
2023-11-21T15:32:12.501Z,99274.19
2023-11-21T15:34:39.591Z,99275.72
2023-11-21T15:37:11.930Z,99283.84
2023-11-21T15:39:40.098Z,99281.94
2023-11-21T15:42:08.517Z,99278.91
2023-11-21T15:44:35.396Z,99258.44
2023-11-21T15:47:05.043Z,99280.19
2023-11-21T15:49:37.894Z,99280.41
2023-11-21T15:52:11.116Z,99279.25
2023-11-21T15:54:38.287Z,99264.09
2023-11-21T15:57:05.756Z,99280.50
2023-11-21T15:59:34.166Z,99285.19
2023-11-21T16:02:01.945Z,99272.47
2023-11-21T16:04:29.384Z,99275.34
2023-11-21T16:06:56.042Z,99270.91
2023-11-21T16:09:31.855Z,99282.31
2023-11-21T16:12:03.450Z,99294.53
2023-11-21T16:14:36.739Z,99295.06
2023-11-21T16:17:04.411Z,99307.63
2023-11-21T16:19:31.310Z,99309.16
2023-11-21T16:21:57.909Z,99306.34
2023-11-21T16:24:25.265Z,99310.00
2023-11-21T16:26:51.839Z,99301.31
2023-11-21T16:29:18.477Z,99309.69
2023-11-21T16:31:46.673Z,99293.78
2023-11-21T16:34:21.001Z,99303.16
2023-11-21T16:36:47.833Z,99289.25
2023-11-21T16:39:14.858Z,99310.16
2023-11-21T16:41:42.919Z,99298.25
2023-11-21T16:44:20.026Z,99312.97
2023-11-21T16:46:48.410Z,99309.59
2023-11-21T16:49:15.053Z,99292.53
2023-11-21T16:51:41.636Z,99294.38
2023-11-21T16:54:08.162Z,99305.06
2023-11-21T16:56:34.751Z,99305.88
2023-11-21T16:59:01.303Z,99298.34
2023-11-21T17:01:28.994Z,99317.25
2023-11-21T17:03:58.960Z,99310.22
2023-11-21T17:06:28.766Z,99311.06
2023-11-21T17:08:56.520Z,99320.09
2023-11-21T17:11:22.953Z,99319.25
2023-11-21T17:13:49.732Z,99320.19
2023-11-21T17:16:17.575Z,99320.88
2023-11-21T17:18:44.129Z,99329.06
2023-11-21T17:21:19.347Z,99329.06
2023-11-21T17:23:49.599Z,99332.28
2023-11-21T17:26:17.149Z,99333.59
2023-11-21T17:28:44.466Z,99328.44
2023-11-21T17:31:11.115Z,99318.41
2023-11-21T17:33:37.787Z,99327.13
2023-11-21T17:36:10.106Z,99328.78
2023-11-21T17:38:38.124Z,99323.78
2023-11-21T17:41:05.542Z,99323.94
2023-11-21T17:43:40.465Z,99334.28
2023-11-21T17:46:09.059Z,99326.47
2023-11-21T17:48:37.711Z,99324.59
2023-11-21T17:51:04.587Z,99331.63
2023-11-21T17:53:31.144Z,99329.94
2023-11-21T17:55:57.740Z,99337.63
2023-11-21T17:58:24.369Z,99343.47
2023-11-21T18:00:50.988Z,99332.38
2023-11-21T18:03:17.665Z,99351.28
2023-11-21T18:05:45.020Z,99339.84
2023-11-21T18:08:11.607Z,99350.91
2023-11-21T18:10:38.113Z,99334.31
2023-11-21T18:13:04.677Z,99350.53
2023-11-21T18:15:31.220Z,99362.75
2023-11-21T18:17:58.138Z,99358.88
2023-11-21T18:20:24.816Z,99364.25
2023-11-21T18:22:51.434Z,99356.41
2023-11-21T18:25:19.084Z,99362.28
2023-11-21T18:27:45.677Z,99366.94
2023-11-21T18:30:12.666Z,99367.28
2023-11-21T18:32:39.380Z,99366.94
2023-11-21T18:35:06.686Z,99368.25
2023-11-21T18:37:33.512Z,99367.22
2023-11-21T18:40:00.095Z,99374.03
2023-11-21T18:42:29.051Z,99372.41
2023-11-21T18:44:59.240Z,99369.53
2023-11-21T18:47:27.962Z,99377.72
2023-11-21T18:49:56.038Z,99374.00
2023-11-21T18:52:24.372Z,99374.09
2023-11-21T18:54:51.190Z,99380.13
2023-11-21T18:57:17.848Z,99370.91
2023-11-21T18:59:45.209Z,99362.91
2023-11-21T19:02:15.248Z,99367.88
2023-11-21T19:04:42.179Z,99368.88
2023-11-21T19:07:08.782Z,99373.88
2023-11-21T19:09:36.545Z,99373.00
2023-11-21T19:12:05.902Z,99378.00
2023-11-21T19:14:32.852Z,99380.47
2023-11-21T19:17:00.273Z,99376.66
2023-11-21T19:19:27.753Z,99384.66
2023-11-21T19:21:54.990Z,99376.44
2023-11-21T19:24:21.675Z,99380.81
2023-11-21T19:26:48.408Z,99387.56
2023-11-21T19:29:14.966Z,99379.47
2023-11-21T19:31:41.594Z,99379.63
2023-11-21T19:34:08.282Z,99384.66
2023-11-21T19:36:39.555Z,99383.28
2023-11-21T19:39:06.148Z,99380.78
2023-11-21T19:41:32.691Z,99379.47
2023-11-21T19:44:00.169Z,99387.13
2023-11-21T19:46:26.959Z,99389.47
2023-11-21T19:48:54.520Z,99379.94
2023-11-21T19:51:22.940Z,99396.69
2023-11-21T19:53:49.990Z,99402.88
2023-11-21T19:56:16.850Z,99399.53
2023-11-21T19:58:43.475Z,99397.25
2023-11-21T20:01:13.169Z,99412.44
2023-11-21T20:03:39.961Z,99400.50
2023-11-21T20:06:07.568Z,99412.56
2023-11-21T20:08:37.494Z,99399.00
2023-11-21T20:11:05.519Z,99407.72
2023-11-21T20:13:32.660Z,99411.88
2023-11-21T20:15:59.176Z,99401.53
2023-11-21T20:18:27.371Z,99393.66
2023-11-21T20:20:54.309Z,99407.09
2023-11-21T20:23:21.793Z,99408.44
2023-11-21T20:25:48.623Z,99403.78
2023-11-21T20:28:15.244Z,99406.28
2023-11-21T20:30:41.903Z,99395.94
2023-11-21T20:33:08.662Z,99394.78
2023-11-21T20:35:38.822Z,99409.31
2023-11-21T20:38:06.113Z,99413.72
2023-11-21T20:40:32.674Z,99419.53
2023-11-21T20:43:03.899Z,99418.31
2023-11-21T20:45:31.345Z,99416.47
2023-11-21T20:47:58.444Z,99424.66
2023-11-21T20:50:25.489Z,99419.91
2023-11-21T20:52:52.315Z,99429.44
2023-11-21T20:55:20.969Z,99430.97
2023-11-21T20:57:47.653Z,99427.69
2023-11-21T21:00:16.553Z,99437.19
2023-11-21T21:02:43.507Z,99439.81
2023-11-21T21:05:10.993Z,99433.75
2023-11-21T21:07:37.601Z,99448.00
2023-11-21T21:10:04.318Z,99437.19
2023-11-21T21:12:30.843Z,99447.34
2023-11-21T21:14:57.386Z,99448.19
2023-11-21T21:17:23.967Z,99451.94
2023-11-21T21:19:50.565Z,99439.25
2023-11-21T21:22:17.142Z,99434.75
2023-11-21T21:24:43.621Z,99451.00
2023-11-21T21:27:10.109Z,99461.09
2023-11-21T21:29:36.627Z,99458.81
2023-11-21T21:32:03.297Z,99463.69
2023-11-21T21:34:29.844Z,99454.84
2023-11-21T21:36:56.546Z,99455.84
2023-11-21T21:39:23.382Z,99468.28
2023-11-21T21:41:52.000Z,99476.28
2023-11-21T21:44:18.715Z,99464.06
2023-11-21T21:46:45.349Z,99472.59
2023-11-21T21:49:12.606Z,99462.25
2023-11-21T21:51:39.125Z,99464.81
2023-11-21T21:54:08.139Z,99475.28
2023-11-21T21:56:36.358Z,99473.66
2023-11-21T21:59:02.949Z,99483.75
2023-11-21T22:01:31.931Z,99474.16
2023-11-21T22:04:01.047Z,99486.66
2023-11-21T22:06:29.855Z,99467.97
2023-11-21T22:08:57.384Z,99472.81
2023-11-21T22:11:24.049Z,99461.78
2023-11-21T22:13:50.633Z,99459.88
2023-11-21T22:16:18.410Z,99462.31
2023-11-21T22:18:45.019Z,99467.38
2023-11-21T22:21:15.586Z,99468.91
2023-11-21T22:23:42.060Z,99461.78
2023-11-21T22:26:08.642Z,99471.75
2023-11-21T22:28:36.195Z,99485.16
2023-11-21T22:31:02.838Z,99483.09
2023-11-21T22:33:29.333Z,99487.34
2023-11-21T22:35:55.801Z,99491.91
2023-11-21T22:38:22.365Z,99497.94
2023-11-21T22:40:49.131Z,99501.91
2023-11-21T22:43:17.751Z,99493.94
2023-11-21T22:45:44.904Z,99494.53
2023-11-21T22:48:11.893Z,99499.16
2023-11-21T22:50:38.912Z,99496.91
2023-11-21T22:53:05.463Z,99510.63
2023-11-21T22:55:33.449Z,99500.81
2023-11-21T22:58:00.658Z,99510.94
2023-11-21T23:00:30.723Z,99507.03
2023-11-21T23:02:58.345Z,99502.50
2023-11-21T23:05:24.967Z,99489.47
2023-11-21T23:07:51.681Z,99512.28
2023-11-21T23:10:19.288Z,99507.94
2023-11-21T23:12:45.947Z,99505.19
2023-11-21T23:15:12.452Z,99510.50
2023-11-21T23:17:41.393Z,99508.41
2023-11-21T23:20:11.075Z,99513.59
2023-11-21T23:22:41.261Z,99498.31
2023-11-21T23:25:09.644Z,99498.19
2023-11-21T23:27:36.196Z,99510.38
2023-11-21T23:30:02.837Z,99515.13
2023-11-21T23:32:29.501Z,99501.97
2023-11-21T23:34:56.125Z,99514.00
2023-11-21T23:37:22.933Z,99517.41
2023-11-21T23:39:49.550Z,99519.06
2023-11-21T23:42:17.495Z,99522.72
2023-11-21T23:44:43.923Z,99528.72
2023-11-21T23:47:10.973Z,99519.63
2023-11-21T23:49:37.738Z,99524.13
2023-11-21T23:52:04.539Z,99514.81
2023-11-21T23:54:31.169Z,99519.16
2023-11-21T23:56:59.105Z,99516.81
2023-11-21T23:59:26.368Z,99521.84
